Time;durP1;ratioP1;P1;durP2;ratioP2;P2;SDS_P1;SDS_P2;PMS_P1;PMS_P2;Temp;Humidity;BMP_temperature;BMP_pressure;BME280_temperature;BME280_humidity;BME280_pressure;Samples;Min_cycle;Max_cycle;Signal;HPM_P1;HPM_P2
2021/04/29 00:01:56;;;;;;;15.20;11.80;;;8.10;99.90;;;;;;4144045;28;20084;-78
2021/04/29 00:03:56;;;;;;;17.67;12.35;;;8.10;99.90;;;;;;4143749;28;20034;-79
2021/04/29 00:05:57;;;;;;;22.38;13.00;;;8.20;99.90;;;;;;4143859;28;20030;-79
2021/04/29 00:07:58;;;;;;;16.95;11.80;;;8.10;99.90;;;;;;4127553;28;20051;-78
2021/04/29 00:09:59;;;;;;;18.40;12.32;;;8.10;99.90;;;;;;4141856;28;20039;-79
2021/04/29 00:11:59;;;;;;;15.70;12.13;;;8.00;99.90;;;;;;4127848;28;20026;-79
2021/04/29 00:14:02;;;;;;;19.13;12.32;;;8.00;99.90;;;;;;4171298;28;20071;-78
2021/04/29 00:16:04;;;;;;;14.38;11.95;;;7.90;99.90;;;;;;4180744;28;20067;-78
2021/04/29 00:18:04;;;;;;;17.70;13.20;;;7.90;99.90;;;;;;4148173;28;20044;-78
2021/04/29 00:20:09;;;;;;;16.73;11.32;;;7.90;99.90;;;;;;4164265;28;20057;-79
2021/04/29 00:22:09;;;;;;;17.63;12.48;;;7.80;99.90;;;;;;4164448;28;20044;-79
2021/04/29 00:24:11;;;;;;;18.00;11.55;;;7.80;99.90;;;;;;4147678;28;20026;-78
2021/04/29 00:26:12;;;;;;;17.70;11.65;;;7.80;99.90;;;;;;4146329;28;20028;-79
2021/04/29 00:28:14;;;;;;;15.65;12.30;;;7.80;99.90;;;;;;4146758;28;20069;-78
2021/04/29 00:30:16;;;;;;;22.23;13.00;;;7.80;99.90;;;;;;4146542;28;20034;-77
2021/04/29 00:32:16;;;;;;;21.50;13.57;;;7.70;99.90;;;;;;4146471;28;20034;-79
2021/04/29 00:34:17;;;;;;;15.98;12.68;;;7.70;99.90;;;;;;4146637;28;20483;-78
2021/04/29 00:36:18;;;;;;;19.98;12.68;;;7.60;99.90;;;;;;4130615;28;20065;-79
2021/04/29 00:38:19;;;;;;;19.70;14.07;;;7.60;99.90;;;;;;4150472;28;20042;-78
2021/04/29 00:40:20;;;;;;;17.23;13.77;;;7.60;99.90;;;;;;4145479;28;20034;-79
2021/04/29 00:42:21;;;;;;;18.48;13.10;;;7.60;99.90;;;;;;4163032;28;20072;-78
2021/04/29 00:44:22;;;;;;;16.77;12.52;;;7.70;99.90;;;;;;4147130;28;20069;-77
2021/04/29 00:46:23;;;;;;;23.08;13.90;;;7.70;99.90;;;;;;4147532;28;20506;-78
2021/04/29 00:48:24;;;;;;;19.10;12.13;;;7.70;99.90;;;;;;4131143;28;20069;-78
2021/04/29 00:50:26;;;;;;;20.45;14.77;;;7.80;99.90;;;;;;4149199;28;20034;-78
2021/04/29 00:52:27;;;;;;;18.45;14.05;;;7.80;99.90;;;;;;4164039;28;20080;-79
2021/04/29 00:54:28;;;;;;;17.52;13.65;;;7.70;99.90;;;;;;4152174;28;20381;-79
2021/04/29 00:56:29;;;;;;;19.95;13.52;;;7.70;99.90;;;;;;4148994;28;20045;-77
2021/04/29 00:58:30;;;;;;;21.90;14.50;;;7.80;99.90;;;;;;4148940;28;20050;-78
2021/04/29 01:00:31;;;;;;;18.48;13.40;;;7.80;99.90;;;;;;4147488;28;20038;-79
2021/04/29 01:02:35;;;;;;;17.23;13.45;;;7.80;99.90;;;;;;4147261;28;20030;-79
2021/04/29 01:05:00;;;;;;;15.18;12.27;;;7.70;99.90;;;;;;4147266;28;20034;-78
2021/04/29 01:07:12;;;;;;;19.38;13.35;;;7.70;99.90;;;;;;4141112;28;20026;-77
2021/04/29 01:09:25;;;;;;;18.08;13.55;;;7.60;99.90;;;;;;4149021;28;20136;-78
2021/04/29 01:11:33;;;;;;;20.38;16.35;;;7.60;99.90;;;;;;4135719;28;20033;-78
2021/04/29 01:13:37;;;;;;;17.95;14.07;;;7.40;99.90;;;;;;4147255;28;20037;-78
2021/04/29 01:15:42;;;;;;;21.38;13.77;;;7.40;99.90;;;;;;4147201;28;20104;-78
2021/04/29 01:17:47;;;;;;;20.33;14.25;;;7.40;99.90;;;;;;4147156;28;20064;-78
2021/04/29 01:19:59;;;;;;;18.30;14.85;;;7.40;99.90;;;;;;4147408;28;20045;-78
2021/04/29 01:22:00;;;;;;;18.27;13.88;;;7.40;99.90;;;;;;4147150;28;20508;-78
2021/04/29 01:24:11;;;;;;;20.42;14.27;;;7.30;99.90;;;;;;4146826;28;21459;-78
2021/04/29 01:26:33;;;;;;;20.13;14.27;;;7.40;99.90;;;;;;4133687;28;20380;-79
2021/04/29 01:28:34;;;;;;;20.27;14.38;;;7.40;99.90;;;;;;4148432;28;20045;-78
2021/04/29 01:30:38;;;;;;;20.05;14.43;;;7.40;99.90;;;;;;4147243;28;20088;-79
2021/04/29 01:32:40;;;;;;;21.98;15.13;;;7.50;99.90;;;;;;4146959;28;20034;-78
2021/04/29 01:34:41;;;;;;;18.65;14.15;;;7.60;99.90;;;;;;4146707;28;20037;-77
2021/04/29 01:36:42;;;;;;;16.08;13.70;;;7.70;99.90;;;;;;4146710;28;20189;-78
2021/04/29 01:38:44;;;;;;;23.73;14.65;;;7.70;99.90;;;;;;4147024;28;20034;-79
2021/04/29 01:40:46;;;;;;;20.02;14.30;;;7.80;99.90;;;;;;4147165;28;20038;-79
2021/04/29 01:42:47;;;;;;;20.83;13.95;;;7.90;99.90;;;;;;4147004;28;20489;-79
2021/04/29 01:44:48;;;;;;;20.25;13.30;;;7.90;99.90;;;;;;4138848;28;20026;-79
2021/04/29 01:46:49;;;;;;;20.40;14.40;;;7.90;99.90;;;;;;4161770;28;20120;-79
2021/04/29 01:48:51;;;;;;;20.98;13.98;;;7.90;99.90;;;;;;4142900;28;20042;-77
2021/04/29 01:50:53;;;;;;;17.88;13.75;;;7.90;99.90;;;;;;4179297;28;20047;-78
2021/04/29 01:52:53;;;;;;;21.17;14.15;;;7.90;99.90;;;;;;4179397;28;20037;-78
2021/04/29 01:54:54;;;;;;;16.80;15.00;;;8.00;99.90;;;;;;4179372;28;20037;-79
2021/04/29 01:56:55;;;;;;;18.85;14.48;;;8.00;99.90;;;;;;4130104;28;20035;-78
2021/04/29 01:58:56;;;;;;;21.83;14.30;;;8.00;99.90;;;;;;4147747;28;20030;-78
2021/04/29 02:00:57;;;;;;;24.40;16.17;;;8.00;99.90;;;;;;4146593;28;20033;-78
2021/04/29 02:03:01;;;;;;;18.83;14.52;;;8.00;99.90;;;;;;4146454;28;20048;-78
2021/04/29 02:05:03;;;;;;;18.02;15.00;;;8.00;99.90;;;;;;4151403;28;20030;-77
2021/04/29 02:07:04;;;;;;;20.60;14.43;;;7.90;99.90;;;;;;4143612;28;20145;-79
2021/04/29 02:09:06;;;;;;;18.77;14.52;;;8.00;99.90;;;;;;4162377;28;20042;-79
2021/04/29 02:11:09;;;;;;;19.58;14.20;;;7.90;99.90;;;;;;4141122;28;20470;-79
2021/04/29 02:13:13;;;;;;;19.05;14.63;;;8.00;99.90;;;;;;4178930;28;20028;-79
2021/04/29 02:15:15;;;;;;;19.80;15.07;;;8.00;99.90;;;;;;4179287;28;20041;-79
2021/04/29 02:17:55;;;;;;;29.77;17.48;;;8.00;99.90;;;;;;4162435;28;20037;-78
2021/04/29 02:20:04;;;;;;;21.90;15.30;;;8.00;99.90;;;;;;4133765;28;20455;-79
2021/04/29 02:22:05;;;;;;;19.33;14.98;;;8.00;99.90;;;;;;4145989;28;20034;-79
2021/04/29 02:24:07;;;;;;;23.38;16.08;;;7.90;99.90;;;;;;4146246;28;20121;-79
2021/04/29 02:26:08;;;;;;;21.23;15.32;;;8.00;99.90;;;;;;4145604;28;20038;-79
2021/04/29 02:28:08;;;;;;;25.35;17.08;;;7.90;99.90;;;;;;4139979;28;20035;-78
2021/04/29 02:30:13;;;;;;;23.83;16.38;;;8.00;99.90;;;;;;4144684;28;20096;-78
2021/04/29 02:32:17;;;;;;;21.73;15.35;;;7.90;99.90;;;;;;4177445;28;20121;-79
2021/04/29 02:34:19;;;;;;;21.65;16.00;;;7.90;99.90;;;;;;4177365;28;20111;-79
2021/04/29 02:36:21;;;;;;;19.75;16.05;;;7.90;99.90;;;;;;4176898;28;20121;-79
2021/04/29 02:38:22;;;;;;;21.00;16.15;;;7.80;99.90;;;;;;4176453;28;20368;-78
2021/04/29 02:40:25;;;;;;;19.98;15.70;;;7.80;99.90;;;;;;4121141;28;20109;-78
2021/04/29 02:42:27;;;;;;;21.70;16.15;;;7.80;99.90;;;;;;4170227;28;20032;-77
2021/04/29 02:44:29;;;;;;;21.83;16.40;;;7.80;99.90;;;;;;4143707;28;20025;-78
2021/04/29 02:46:31;;;;;;;24.30;17.20;;;7.80;99.90;;;;;;4144222;28;20042;-79
2021/04/29 02:48:32;;;;;;;18.48;16.45;;;7.80;99.90;;;;;;4144636;28;20042;-78
2021/04/29 02:50:32;;;;;;;19.60;16.65;;;7.80;99.90;;;;;;4144572;28;20469;-79
2021/04/29 02:52:33;;;;;;;20.80;16.25;;;7.80;99.90;;;;;;4149697;28;20041;-78
2021/04/29 02:54:34;;;;;;;20.23;16.98;;;7.70;99.90;;;;;;4149221;28;20025;-78
2021/04/29 02:56:40;;;;;;;28.73;16.58;;;7.70;99.90;;;;;;4139538;28;20141;-77
2021/04/29 02:58:46;;;;;;;24.35;16.17;;;7.70;99.90;;;;;;4145760;28;20042;-75
2021/04/29 03:00:47;;;;;;;23.60;16.63;;;7.80;99.90;;;;;;4128320;28;20034;-78
2021/04/29 03:02:48;;;;;;;20.35;15.45;;;7.80;99.90;;;;;;4144265;28;20030;-77
2021/04/29 03:04:49;;;;;;;19.75;17.10;;;7.90;99.90;;;;;;4144491;28;20534;-78
2021/04/29 03:06:50;;;;;;;26.20;17.35;;;7.90;99.90;;;;;;4161808;28;20040;-79
2021/04/29 03:08:51;;;;;;;25.83;16.33;;;7.90;99.90;;;;;;4161331;28;20398;-79
2021/04/29 03:10:52;;;;;;;24.13;17.05;;;7.90;99.90;;;;;;4146825;28;20045;-79
2021/04/29 03:12:53;;;;;;;18.48;15.13;;;7.90;99.90;;;;;;4146758;28;20034;-78
2021/04/29 03:14:54;;;;;;;19.65;15.40;;;7.90;99.90;;;;;;4145425;28;20440;-79
2021/04/29 03:16:54;;;;;;;22.33;16.95;;;7.90;99.90;;;;;;4161691;28;20029;-79
2021/04/29 03:18:55;;;;;;;20.83;16.23;;;7.90;99.90;;;;;;4129263;28;20473;-78
2021/04/29 03:20:56;;;;;;;32.15;17.85;;;8.10;99.90;;;;;;4178428;28;20640;-79
2021/04/29 03:22:57;;;;;;;25.90;17.20;;;8.10;99.90;;;;;;4178232;28;20082;-78
2021/04/29 03:24:58;;;;;;;24.83;16.45;;;8.10;99.90;;;;;;4129252;28;20502;-79
2021/04/29 03:26:59;;;;;;;18.75;16.75;;;8.00;99.90;;;;;;4177877;28;20044;-79
2021/04/29 03:29:00;;;;;;;23.13;17.75;;;8.10;99.90;;;;;;4137172;28;20379;-78
2021/04/29 03:31:01;;;;;;;30.55;17.45;;;8.10;99.90;;;;;;4144647;28;20076;-78
2021/04/29 03:33:02;;;;;;;23.13;16.80;;;8.10;99.90;;;;;;4145852;28;20037;-79
2021/04/29 03:35:04;;;;;;;28.08;20.02;;;8.10;99.90;;;;;;4146128;28;20477;-79
2021/04/29 03:37:05;;;;;;;23.77;18.38;;;8.10;99.90;;;;;;4145789;28;20050;-79
2021/04/29 03:39:06;;;;;;;24.95;18.63;;;8.20;99.90;;;;;;4143459;28;20350;-78
2021/04/29 03:41:07;;;;;;;20.98;17.52;;;8.10;99.90;;;;;;4144955;28;20405;-78
2021/04/29 03:43:08;;;;;;;23.55;17.52;;;8.10;99.90;;;;;;4144835;28;20052;-78
2021/04/29 03:45:09;;;;;;;23.17;18.58;;;8.10;99.90;;;;;;4144402;28;20037;-78
2021/04/29 03:47:10;;;;;;;21.25;18.83;;;8.20;99.90;;;;;;4142199;28;20058;-79
2021/04/29 03:49:12;;;;;;;26.92;18.65;;;8.20;99.90;;;;;;4149261;28;20125;-78
2021/04/29 03:51:13;;;;;;;23.85;19.23;;;8.10;99.90;;;;;;4163247;28;20049;-79
2021/04/29 03:53:14;;;;;;;25.75;19.35;;;8.00;99.90;;;;;;4132026;28;20129;-79
2021/04/29 03:55:15;;;;;;;28.95;19.27;;;8.00;99.90;;;;;;4145964;28;20052;-77
2021/04/29 03:57:17;;;;;;;24.95;20.77;;;7.90;99.90;;;;;;4147518;28;20421;-79
2021/04/29 03:59:18;;;;;;;24.92;18.55;;;7.90;99.90;;;;;;4148082;28;20049;-79
2021/04/29 04:01:19;;;;;;;21.95;18.73;;;8.00;99.90;;;;;;4148012;28;20030;-79
2021/04/29 04:03:20;;;;;;;26.27;20.17;;;8.00;99.90;;;;;;4147384;28;20413;-77
2021/04/29 04:05:21;;;;;;;25.02;18.85;;;8.10;99.90;;;;;;4149355;28;20049;-77
2021/04/29 04:07:22;;;;;;;28.33;20.35;;;8.10;99.90;;;;;;4145881;28;20034;-78
2021/04/29 04:09:22;;;;;;;25.30;18.88;;;8.10;99.90;;;;;;4140221;28;20053;-77
2021/04/29 04:11:23;;;;;;;32.25;23.73;;;8.00;99.90;;;;;;4147539;28;20040;-78
2021/04/29 04:13:24;;;;;;;33.72;24.15;;;7.90;99.90;;;;;;4163828;28;20033;-78
2021/04/29 04:15:25;;;;;;;34.25;23.75;;;7.70;99.90;;;;;;4148000;28;20469;-78
2021/04/29 04:17:26;;;;;;;29.70;24.27;;;7.60;99.90;;;;;;4157716;28;20788;-79
2021/04/29 04:19:27;;;;;;;37.45;24.52;;;7.40;99.90;;;;;;4147605;28;20038;-78
2021/04/29 04:21:28;;;;;;;44.75;25.80;;;7.30;99.90;;;;;;4147685;28;20072;-78
2021/04/29 04:23:28;;;;;;;39.00;26.15;;;7.30;99.90;;;;;;4130854;28;20716;-78
2021/04/29 04:25:29;;;;;;;38.20;27.35;;;7.30;99.90;;;;;;4163565;28;20045;-78
2021/04/29 04:27:30;;;;;;;37.90;28.88;;;7.20;99.90;;;;;;4149074;28;20038;-79
2021/04/29 04:29:31;;;;;;;40.85;30.80;;;7.10;99.90;;;;;;4162213;28;20491;-77
2021/04/29 04:31:32;;;;;;;37.72;29.10;;;7.00;99.90;;;;;;4153824;28;20038;-77
2021/04/29 04:33:32;;;;;;;33.90;24.77;;;7.00;99.90;;;;;;4147356;28;20038;-77
2021/04/29 04:35:34;;;;;;;40.65;28.50;;;7.10;99.90;;;;;;4178104;28;20037;-77
2021/04/29 04:37:34;;;;;;;40.35;28.58;;;7.00;99.90;;;;;;4163507;28;20029;-76
2021/04/29 04:39:36;;;;;;;43.33;29.40;;;7.00;99.90;;;;;;4144187;28;20042;-77
2021/04/29 04:41:36;;;;;;;37.33;27.83;;;7.00;99.90;;;;;;4147026;28;20049;-77
2021/04/29 04:43:37;;;;;;;40.45;26.48;;;7.00;99.90;;;;;;4144588;28;20582;-77
2021/04/29 04:45:43;;;;;;;40.15;29.00;;;7.10;99.90;;;;;;4145198;28;20509;-78
2021/04/29 04:47:44;;;;;;;38.63;28.90;;;7.10;99.90;;;;;;4148836;28;20030;-78
2021/04/29 04:49:45;;;;;;;38.90;27.63;;;7.20;99.90;;;;;;4148663;28;20038;-76
2021/04/29 04:51:47;;;;;;;39.30;30.02;;;7.20;99.90;;;;;;4144821;28;20034;-75
2021/04/29 04:53:48;;;;;;;38.10;30.33;;;7.20;99.90;;;;;;4113564;28;20039;-76
2021/04/29 04:55:51;;;;;;;41.58;30.77;;;7.30;99.90;;;;;;4147579;28;20351;-77
2021/04/29 04:57:51;;;;;;;41.42;30.70;;;7.30;99.90;;;;;;4146032;28;20508;-77
2021/04/29 04:59:52;;;;;;;43.38;31.00;;;7.40;99.90;;;;;;4146149;28;20030;-78
2021/04/29 05:01:54;;;;;;;38.53;30.00;;;7.40;99.90;;;;;;4154545;28;20057;-77
2021/04/29 05:03:55;;;;;;;39.28;28.05;;;7.50;99.90;;;;;;4145253;28;20026;-77
2021/04/29 05:05:56;;;;;;;38.38;28.85;;;7.70;99.90;;;;;;4145917;28;20072;-78
2021/04/29 05:08:00;;;;;;;43.58;31.38;;;7.70;99.90;;;;;;4145802;28;20069;-77
2021/04/29 05:10:00;;;;;;;45.05;31.38;;;7.70;99.90;;;;;;4145667;28;20033;-75
2021/04/29 05:12:01;;;;;;;39.00;29.48;;;7.80;99.90;;;;;;4146138;28;20111;-76
2021/04/29 05:14:02;;;;;;;38.78;29.48;;;7.90;99.90;;;;;;4146692;28;20381;-77
2021/04/29 05:16:04;;;;;;;43.47;31.42;;;8.00;99.90;;;;;;4146650;28;20109;-77
2021/04/29 05:18:05;;;;;;;42.40;31.95;;;8.00;99.90;;;;;;4145785;28;20037;-77
2021/04/29 05:20:06;;;;;;;46.80;32.42;;;8.10;99.90;;;;;;4146246;28;20018;-77
2021/04/29 05:22:07;;;;;;;44.63;31.92;;;8.10;99.90;;;;;;4148044;28;20026;-78
2021/04/29 05:24:08;;;;;;;39.72;29.92;;;8.10;99.90;;;;;;4146485;28;20030;-78
2021/04/29 05:26:09;;;;;;;43.85;31.58;;;8.20;99.90;;;;;;4148014;28;20034;-79
2021/04/29 05:28:10;;;;;;;43.90;30.60;;;8.30;99.90;;;;;;4146609;28;20057;-78
2021/04/29 05:30:12;;;;;;;39.92;30.08;;;8.30;99.90;;;;;;4146612;28;20030;-78
2021/04/29 05:32:12;;;;;;;42.03;28.95;;;8.40;99.90;;;;;;4146597;28;20038;-79
2021/04/29 05:34:13;;;;;;;41.05;29.70;;;8.50;99.90;;;;;;4146866;28;20044;-78
2021/04/29 05:36:14;;;;;;;41.50;29.63;;;8.50;99.90;;;;;;4148203;28;20046;-78
2021/04/29 05:38:15;;;;;;;38.28;30.45;;;8.50;99.90;;;;;;4146902;28;20050;-76
2021/04/29 05:40:16;;;;;;;45.03;31.30;;;8.50;99.90;;;;;;4148092;28;20102;-78
2021/04/29 05:42:17;;;;;;;43.67;29.67;;;8.50;99.90;;;;;;4147862;28;20038;-78
2021/04/29 05:44:17;;;;;;;36.83;30.05;;;8.50;99.90;;;;;;4148194;28;20513;-79
2021/04/29 05:46:18;;;;;;;38.33;29.50;;;8.50;99.90;;;;;;4143558;28;20042;-79
2021/04/29 05:48:19;;;;;;;41.53;32.47;;;8.60;99.90;;;;;;4130637;28;20034;-78
2021/04/29 05:50:20;;;;;;;36.47;29.85;;;8.60;99.90;;;;;;4147738;28;20038;-78
2021/04/29 05:52:22;;;;;;;36.15;28.15;;;8.70;99.90;;;;;;4163133;28;21191;-77
2021/04/29 05:54:23;;;;;;;38.42;29.83;;;8.70;99.90;;;;;;4146565;28;20034;-78
2021/04/29 05:56:23;;;;;;;39.67;29.88;;;8.70;99.90;;;;;;4130157;28;20030;-78
2021/04/29 05:58:25;;;;;;;38.50;27.17;;;8.70;99.90;;;;;;4146630;28;20034;-77
2021/04/29 06:00:26;;;;;;;35.60;28.30;;;8.70;99.90;;;;;;4147582;28;20135;-77
2021/04/29 06:02:27;;;;;;;39.47;29.13;;;8.70;99.90;;;;;;4146348;28;20034;-77
2021/04/29 06:04:28;;;;;;;38.95;29.00;;;8.70;99.90;;;;;;4162369;28;20119;-77
2021/04/29 06:06:29;;;;;;;37.03;30.48;;;8.70;99.90;;;;;;4146165;28;20481;-78
2021/04/29 06:08:30;;;;;;;37.45;29.48;;;8.60;99.90;;;;;;4136963;28;20053;-77
2021/04/29 06:10:32;;;;;;;42.83;28.75;;;8.60;99.90;;;;;;4145363;28;20041;-77
2021/04/29 06:12:33;;;;;;;36.47;29.13;;;8.70;99.90;;;;;;4136935;28;20034;-76
2021/04/29 06:14:33;;;;;;;42.30;30.20;;;8.80;99.90;;;;;;4129791;28;20049;-77
2021/04/29 06:16:34;;;;;;;38.47;28.75;;;8.80;99.90;;;;;;4140009;28;20034;-77
2021/04/29 06:18:35;;;;;;;40.03;30.20;;;8.80;99.90;;;;;;4146073;28;20044;-79
2021/04/29 06:20:36;;;;;;;39.97;30.23;;;8.80;99.90;;;;;;4146420;28;20041;-76
2021/04/29 06:22:37;;;;;;;36.78;30.35;;;8.70;99.90;;;;;;4150464;28;20046;-77
2021/04/29 06:24:37;;;;;;;41.17;30.88;;;8.70;99.90;;;;;;4144173;28;20033;-77
2021/04/29 06:26:38;;;;;;;39.33;29.73;;;8.70;99.90;;;;;;4147479;28;20033;-77
2021/04/29 06:28:39;;;;;;;37.17;28.63;;;8.60;99.90;;;;;;4140440;28;20038;-78
2021/04/29 06:30:41;;;;;;;38.50;30.35;;;8.60;99.90;;;;;;4147579;28;20034;-77
2021/04/29 06:32:42;;;;;;;35.05;28.75;;;8.60;99.90;;;;;;4145761;28;20433;-78
2021/04/29 06:34:45;;;;;;;40.40;31.70;;;8.50;99.90;;;;;;4143104;28;20038;-80
2021/04/29 06:36:46;;;;;;;38.42;29.63;;;8.50;99.90;;;;;;4144704;28;20052;-81
2021/04/29 06:38:46;;;;;;;36.90;27.38;;;8.50;99.90;;;;;;4144953;28;20049;-80
2021/04/29 06:40:47;;;;;;;38.50;28.55;;;8.50;99.90;;;;;;4142908;28;20077;-80
2021/04/29 06:42:48;;;;;;;34.13;27.95;;;8.40;99.90;;;;;;4159461;28;20044;-80
2021/04/29 06:44:50;;;;;;;42.08;30.50;;;8.40;99.90;;;;;;4128639;28;20042;-81
2021/04/29 06:46:51;;;;;;;37.70;29.30;;;8.40;99.90;;;;;;4172682;28;20048;-80
2021/04/29 06:48:52;;;;;;;35.65;27.73;;;8.40;99.90;;;;;;4142621;28;20046;-80
2021/04/29 06:50:53;;;;;;;40.80;28.98;;;8.40;99.90;;;;;;4138897;28;20034;-80
2021/04/29 06:52:54;;;;;;;37.95;28.35;;;8.40;99.90;;;;;;4126391;28;20037;-80
2021/04/29 06:54:55;;;;;;;38.00;28.58;;;8.50;99.90;;;;;;4140509;28;20483;-81
2021/04/29 06:56:58;;;;;;;36.28;27.50;;;8.60;99.90;;;;;;4154357;28;20037;-80
2021/04/29 06:58:58;;;;;;;34.40;26.10;;;8.70;99.90;;;;;;4143414;28;20540;-80
2021/04/29 07:01:00;;;;;;;31.40;24.77;;;8.70;99.90;;;;;;4143782;28;20034;-80
2021/04/29 07:03:01;;;;;;;32.10;26.55;;;8.70;99.90;;;;;;4132250;28;20031;-80
2021/04/29 07:05:03;;;;;;;33.90;25.55;;;8.60;99.90;;;;;;4152904;28;20568;-80
2021/04/29 07:07:04;;;;;;;34.90;26.63;;;8.70;99.90;;;;;;4150622;28;20058;-80
2021/04/29 07:09:06;;;;;;;33.55;25.10;;;8.70;99.90;;;;;;4145744;28;20557;-80
2021/04/29 07:11:07;;;;;;;28.02;23.63;;;8.70;99.90;;;;;;4154731;28;20116;-79
2021/04/29 07:13:08;;;;;;;32.30;24.40;;;8.70;99.90;;;;;;4126724;28;20081;-80
2021/04/29 07:15:09;;;;;;;32.28;25.15;;;8.70;99.90;;;;;;4152506;28;20560;-82
2021/04/29 07:17:10;;;;;;;26.77;23.05;;;8.80;99.90;;;;;;4143354;28;20080;-81
2021/04/29 07:19:11;;;;;;;33.55;25.90;;;8.80;99.90;;;;;;4144811;28;20046;-81
2021/04/29 07:21:12;;;;;;;34.60;24.77;;;8.90;99.90;;;;;;4144114;28;20077;-81
2021/04/29 07:23:19;;;;;;;34.10;25.35;;;8.90;99.90;;;;;;4160712;28;20085;-82
2021/04/29 07:25:19;;;;;;;30.23;22.95;;;8.90;99.90;;;;;;4171680;28;20120;-82
2021/04/29 07:27:20;;;;;;;33.67;24.80;;;8.90;99.90;;;;;;4136902;28;20038;-81
2021/04/29 07:29:21;;;;;;;31.27;24.70;;;8.90;99.90;;;;;;4144347;28;20511;-80
2021/04/29 07:31:23;;;;;;;34.97;24.38;;;8.90;99.90;;;;;;4135536;28;20069;-81
2021/04/29 07:33:24;;;;;;;29.10;22.40;;;8.80;99.90;;;;;;4140775;28;20387;-81
2021/04/29 07:35:25;;;;;;;28.67;24.38;;;8.80;99.90;;;;;;4140225;28;20072;-80
2021/04/29 07:37:26;;;;;;;30.10;23.70;;;8.90;99.90;;;;;;4155332;28;20045;-78
2021/04/29 07:39:27;;;;;;;27.77;23.40;;;8.90;99.90;;;;;;4135723;28;20593;-80
2021/04/29 07:41:29;;;;;;;33.00;25.98;;;8.80;99.90;;;;;;4152180;28;20053;-81
2021/04/29 07:43:30;;;;;;;28.75;24.30;;;8.80;99.90;;;;;;4127942;28;20038;-81
2021/04/29 07:45:32;;;;;;;31.30;23.70;;;8.70;99.90;;;;;;4157692;28;20034;-81
2021/04/29 07:47:33;;;;;;;35.72;25.40;;;8.70;99.90;;;;;;4160724;28;20033;-81
2021/04/29 07:49:34;;;;;;;33.28;25.58;;;8.70;99.90;;;;;;4156247;28;20053;-80
2021/04/29 07:51:35;;;;;;;34.42;24.95;;;8.70;99.90;;;;;;4144426;28;20038;-79
2021/04/29 07:53:36;;;;;;;27.42;22.27;;;8.60;99.90;;;;;;4144634;28;20121;-81
2021/04/29 07:55:37;;;;;;;31.52;23.40;;;8.60;99.90;;;;;;4143958;28;20122;-79
2021/04/29 07:57:38;;;;;;;32.33;23.23;;;8.60;99.90;;;;;;4144512;28;20061;-80
2021/04/29 07:59:38;;;;;;;29.65;23.38;;;8.60;99.90;;;;;;4128045;28;20474;-80
2021/04/29 08:01:39;;;;;;;29.75;22.83;;;8.50;99.90;;;;;;4136318;28;20163;-81
2021/04/29 08:03:40;;;;;;;28.27;23.63;;;8.50;99.90;;;;;;4143946;28;20552;-81
2021/04/29 08:05:41;;;;;;;25.67;21.27;;;8.50;99.90;;;;;;4133509;28;20038;-80
2021/04/29 08:07:42;;;;;;;25.88;21.52;;;8.50;99.90;;;;;;4158166;28;20045;-80
2021/04/29 08:09:43;;;;;;;27.58;20.60;;;8.50;99.90;;;;;;4144472;28;20034;-78
2021/04/29 08:11:44;;;;;;;26.33;23.38;;;8.50;99.90;;;;;;4143473;28;20038;-76
2021/04/29 08:13:44;;;;;;;28.55;23.23;;;8.40;99.90;;;;;;4145463;28;20045;-78
2021/04/29 08:15:46;;;;;;;24.88;20.88;;;8.40;99.90;;;;;;4144031;28;20129;-77
2021/04/29 08:17:47;;;;;;;25.10;21.33;;;8.40;99.90;;;;;;4145032;28;20022;-76
2021/04/29 08:19:47;;;;;;;27.00;21.58;;;8.50;99.90;;;;;;4140126;28;20057;-77
2021/04/29 08:21:48;;;;;;;28.10;22.90;;;8.50;99.90;;;;;;4144032;28;20034;-77
2021/04/29 08:23:49;;;;;;;26.15;22.90;;;8.50;99.90;;;;;;4143439;28;20038;-77
2021/04/29 08:25:50;;;;;;;26.80;22.10;;;8.50;99.90;;;;;;4139867;28;20034;-77
2021/04/29 08:27:52;;;;;;;30.77;21.88;;;8.50;99.90;;;;;;4139949;28;20485;-78
2021/04/29 08:29:53;;;;;;;27.92;22.63;;;8.50;99.90;;;;;;4143662;28;20057;-78
2021/04/29 08:31:54;;;;;;;28.92;22.63;;;8.50;99.90;;;;;;4149084;28;20103;-78
2021/04/29 08:33:54;;;;;;;31.83;22.70;;;8.50;99.90;;;;;;4145529;28;20495;-78
2021/04/29 08:35:55;;;;;;;26.85;21.00;;;8.60;99.90;;;;;;4146986;28;20088;-78
2021/04/29 08:37:57;;;;;;;27.75;22.42;;;8.70;99.90;;;;;;4146786;28;20042;-79
2021/04/29 08:39:57;;;;;;;24.40;21.85;;;8.60;99.90;;;;;;4161449;28;20037;-77
2021/04/29 08:41:59;;;;;;;29.38;22.80;;;8.60;99.90;;;;;;4158042;28;20038;-78
2021/04/29 08:44:00;;;;;;;28.05;21.75;;;8.60;99.90;;;;;;4148613;28;20050;-78
2021/04/29 08:46:00;;;;;;;29.98;23.08;;;8.70;99.90;;;;;;4139006;28;20629;-75
2021/04/29 08:48:02;;;;;;;27.50;22.42;;;8.70;99.90;;;;;;4143923;28;21670;-77
2021/04/29 08:50:05;;;;;;;26.70;21.15;;;8.70;99.90;;;;;;4133200;28;20031;-77
2021/04/29 08:52:09;;;;;;;31.60;22.67;;;8.80;99.90;;;;;;4178553;28;20518;-77
2021/04/29 08:54:09;;;;;;;27.42;22.73;;;8.80;99.90;;;;;;4178769;28;20025;-77
2021/04/29 08:56:10;;;;;;;29.83;23.70;;;8.80;99.90;;;;;;4138565;28;20396;-78
2021/04/29 08:58:11;;;;;;;26.65;22.55;;;8.90;99.90;;;;;;4147264;28;20036;-77
2021/04/29 09:00:14;;;;;;;33.05;23.48;;;8.90;99.90;;;;;;4146657;28;20571;-77
2021/04/29 09:02:15;;;;;;;32.60;22.35;;;8.80;99.90;;;;;;4146739;28;20064;-77
2021/04/29 09:04:18;;;;;;;25.48;22.52;;;8.80;99.90;;;;;;4146237;28;20512;-77
2021/04/29 09:06:32;;;;;;;28.60;23.00;;;8.80;99.90;;;;;;4145755;28;20037;-78
2021/04/29 09:08:36;;;;;;;27.60;22.33;;;8.80;99.90;;;;;;4145829;28;20046;-78
2021/04/29 09:10:42;;;;;;;27.77;22.40;;;8.80;99.90;;;;;;4138463;28;20855;-75
2021/04/29 09:12:44;;;;;;;27.83;22.02;;;8.80;99.90;;;;;;4154943;28;20057;-76
2021/04/29 09:14:45;;;;;;;27.88;22.80;;;8.80;99.90;;;;;;4142192;28;20157;-76
2021/04/29 09:16:46;;;;;;;28.48;22.15;;;8.80;99.90;;;;;;4155706;28;20111;-75
2021/04/29 09:18:49;;;;;;;28.30;23.90;;;8.80;99.90;;;;;;4140908;28;20076;-76
2021/04/29 09:20:59;;;;;;;25.17;22.45;;;8.80;99.90;;;;;;4143577;28;20042;-77
2021/04/29 09:23:07;;;;;;;29.58;22.90;;;8.80;99.90;;;;;;4138635;28;20045;-75
2021/04/29 09:25:12;;;;;;;25.98;22.83;;;8.70;99.90;;;;;;4142679;28;20034;-76
2021/04/29 09:27:20;;;;;;;35.17;25.48;;;8.70;99.90;;;;;;4141835;28;20037;-76
2021/04/29 09:29:21;;;;;;;30.33;24.10;;;8.70;99.90;;;;;;4140015;28;20056;-75
2021/04/29 09:31:26;;;;;;;28.60;24.10;;;8.70;99.90;;;;;;4145601;28;20061;-77
2021/04/29 09:33:36;;;;;;;27.50;23.08;;;8.70;99.90;;;;;;4146730;28;20086;-77
2021/04/29 09:35:40;;;;;;;31.95;25.90;;;8.70;99.90;;;;;;4146569;28;20366;-76
2021/04/29 09:37:40;;;;;;;31.90;24.30;;;8.70;99.90;;;;;;4145416;28;20092;-77
2021/04/29 09:39:41;;;;;;;28.42;24.13;;;8.70;99.90;;;;;;4145104;28;20037;-76
2021/04/29 09:41:47;;;;;;;30.92;25.25;;;8.70;99.90;;;;;;4146353;28;20034;-77
2021/04/29 09:43:57;;;;;;;32.42;26.17;;;8.70;99.90;;;;;;4141773;28;20053;-75
2021/04/29 09:46:01;;;;;;;27.77;23.33;;;8.70;99.90;;;;;;4146202;28;20140;-77
2021/04/29 09:48:12;;;;;;;37.03;26.42;;;8.80;99.90;;;;;;4144727;28;20033;-77
2021/04/29 09:50:29;;;;;;;30.23;23.00;;;8.70;99.90;;;;;;4128278;28;20085;-77
2021/04/29 09:52:31;;;;;;;34.20;24.90;;;8.70;99.90;;;;;;4160777;28;20179;-77
2021/04/29 09:54:37;;;;;;;30.85;21.77;;;8.60;99.90;;;;;;4146086;28;20083;-77
2021/04/29 09:56:38;;;;;;;31.55;24.88;;;8.60;99.90;;;;;;4142504;28;20041;-77
2021/04/29 09:58:56;;;;;;;34.63;23.63;;;8.50;99.90;;;;;;4144945;28;20781;-76
2021/04/29 10:00:56;;;;;;;26.88;21.20;;;8.50;99.90;;;;;;4144285;28;20069;-77
2021/04/29 10:02:57;;;;;;;35.33;24.75;;;8.50;99.90;;;;;;4137606;28;20026;-78
2021/04/29 10:04:58;;;;;;;41.65;25.35;;;8.40;99.90;;;;;;4167853;28;20148;-78
2021/04/29 10:07:01;;;;;;;36.20;26.10;;;8.40;99.90;;;;;;4144656;28;20058;-78
2021/04/29 10:09:03;;;;;;;38.88;25.65;;;8.30;99.90;;;;;;4144345;28;20723;-77
2021/04/29 10:11:05;;;;;;;36.40;26.58;;;8.20;99.90;;;;;;4146600;28;20036;-79
2021/04/29 10:13:08;;;;;;;34.67;26.90;;;8.10;99.90;;;;;;4145448;28;20088;-75
2021/04/29 10:15:09;;;;;;;44.58;28.05;;;8.10;99.90;;;;;;4145273;28;20044;-78
2021/04/29 10:17:12;;;;;;;40.63;29.00;;;8.10;99.90;;;;;;4145299;28;20048;-78
2021/04/29 10:19:13;;;;;;;;;;;8.10;99.90;;;;;;4145362;28;20041;-77
2021/04/29 10:21:15;;;;;;;36.30;26.40;;;8.10;99.90;;;;;;4157497;28;19925;-79
2021/04/29 10:23:19;;;;;;;32.23;25.40;;;8.20;99.90;;;;;;4161445;28;20042;-78
2021/04/29 10:25:33;;;;;;;33.45;23.85;;;8.10;99.90;;;;;;4155526;28;20041;-78
2021/04/29 10:27:34;;;;;;;;;;;8.20;99.90;;;;;;4143958;28;20656;-79
2021/04/29 10:29:35;;;;;;;35.40;24.40;;;8.00;99.90;;;;;;4135763;28;19948;-78